Charles City, Virginia
Current Conditions -  °F | °C
As of 3:15 AM on Thursday 18 Dec 2014 (Local Time) from KW96 Reporting Station
Clear Clear  
Wind Chill: 32°   Ceiling: Unl
Heat Index: 32°   Visibility: 10mi
Dew Point: 26°   Wind: 0mph
Humidity: 80%   Direction: NA
Pressure: 30.11"   Gusts: NA
Location:  37.34°N, 77.07°W
Report Text: KW96 180815Z AUTO 00000KT 10SM CLR 00/M03 A3011 RMK AO1 T10011032
Loading
Personal Weather Stations






























Interactive Weather Map New forecast layout! Learn more

10-Day Weather Forecast

Advertisements
Track Severe Weather on mobile